sensor_id;sensor_type;location;lat;lon;timestamp;pressure;altitude;pressure_sealevel;temperature;humidity
72038;BME280;59900;50.788;12.904;2023-03-18T00:01:17;97056.47;;;8.56;49.86
72038;BME280;59900;50.788;12.904;2023-03-18T00:03:43;97052.44;;;8.53;49.94
72038;BME280;59900;50.788;12.904;2023-03-18T00:06:12;97050.00;;;8.45;50.21
72038;BME280;59900;50.788;12.904;2023-03-18T00:08:39;97050.38;;;8.42;50.10
72038;BME280;59900;50.788;12.904;2023-03-18T00:11:06;97050.75;;;8.39;50.33
72038;BME280;59900;50.788;12.904;2023-03-18T00:13:32;97054.97;;;8.40;50.15
72038;BME280;59900;50.788;12.904;2023-03-18T00:15:59;97049.75;;;8.40;50.41
72038;BME280;59900;50.788;12.904;2023-03-18T00:18:25;97051.38;;;8.41;50.27
72038;BME280;59900;50.788;12.904;2023-03-18T00:20:51;97051.16;;;8.42;49.87
72038;BME280;59900;50.788;12.904;2023-03-18T00:23:17;97050.59;;;8.47;49.74
72038;BME280;59900;50.788;12.904;2023-03-18T00:25:45;97050.22;;;8.50;49.50
72038;BME280;59900;50.788;12.904;2023-03-18T00:28:11;97051.84;;;8.51;49.20
72038;BME280;59900;50.788;12.904;2023-03-18T00:30:38;97052.06;;;8.56;49.74
72038;BME280;59900;50.788;12.904;2023-03-18T00:33:04;97048.81;;;8.54;49.43
72038;BME280;59900;50.788;12.904;2023-03-18T00:35:29;97047.81;;;8.55;49.37
72038;BME280;59900;50.788;12.904;2023-03-18T00:37:55;97052.06;;;8.56;49.30
72038;BME280;59900;50.788;12.904;2023-03-18T00:40:21;97044.59;;;8.53;49.39
72038;BME280;59900;50.788;12.904;2023-03-18T00:42:54;97044.59;;;8.53;49.16
72038;BME280;59900;50.788;12.904;2023-03-18T00:45:25;97035.06;;;8.45;49.37
72038;BME280;59900;50.788;12.904;2023-03-18T00:47:51;97043.72;;;8.46;49.41
72038;BME280;59900;50.788;12.904;2023-03-18T00:50:16;97040.13;;;8.47;48.90
72038;BME280;59900;50.788;12.904;2023-03-18T00:52:42;97035.88;;;8.46;49.23
72038;BME280;59900;50.788;12.904;2023-03-18T00:55:08;97035.44;;;8.42;49.11
72038;BME280;59900;50.788;12.904;2023-03-18T00:57:34;97040.91;;;8.41;49.17
72038;BME280;59900;50.788;12.904;2023-03-18T01:00:00;97042.69;;;8.40;49.26
72038;BME280;59900;50.788;12.904;2023-03-18T01:02:26;97035.88;;;8.39;49.18
72038;BME280;59900;50.788;12.904;2023-03-18T01:04:52;97041.28;;;8.38;49.18
72038;BME280;59900;50.788;12.904;2023-03-18T01:07:18;97042.91;;;8.39;49.25
72038;BME280;59900;50.788;12.904;2023-03-18T01:09:43;97036.25;;;8.43;49.04
72038;BME280;59900;50.788;12.904;2023-03-18T01:12:10;97035.28;;;8.44;49.08
72038;BME280;59900;50.788;12.904;2023-03-18T01:14:36;97039.13;;;8.48;49.05
72038;BME280;59900;50.788;12.904;2023-03-18T01:17:02;97045.75;;;8.44;49.46
72038;BME280;59900;50.788;12.904;2023-03-18T01:19:28;97043.13;;;8.44;48.92
72038;BME280;59900;50.788;12.904;2023-03-18T01:21:54;97042.91;;;8.45;48.95
72038;BME280;59900;50.788;12.904;2023-03-18T01:24:20;97040.50;;;8.44;48.80
72038;BME280;59900;50.788;12.904;2023-03-18T01:26:46;97044.94;;;8.43;48.80
72038;BME280;59900;50.788;12.904;2023-03-18T01:29:12;97051.59;;;8.46;48.76
72038;BME280;59900;50.788;12.904;2023-03-18T01:31:37;97045.13;;;8.42;48.93
72038;BME280;59900;50.788;12.904;2023-03-18T01:34:02;97050.97;;;8.44;48.20
72038;BME280;59900;50.788;12.904;2023-03-18T01:36:28;97040.50;;;8.44;47.95
72038;BME280;59900;50.788;12.904;2023-03-18T01:38:54;97050.97;;;8.44;48.36
72038;BME280;59900;50.788;12.904;2023-03-18T01:41:20;97050.00;;;8.45;47.84
72038;BME280;59900;50.788;12.904;2023-03-18T01:43:46;97050.38;;;8.49;47.85
72038;BME280;59900;50.788;12.904;2023-03-18T01:46:35;97055.44;;;8.50;47.85
72038;BME280;59900;50.788;12.904;2023-03-18T01:49:05;97053.81;;;8.49;47.49
72038;BME280;59900;50.788;12.904;2023-03-18T01:51:31;97049.81;;;8.53;47.90
72038;BME280;59900;50.788;12.904;2023-03-18T01:53:59;97059.47;;;8.53;47.75
72038;BME280;59900;50.788;12.904;2023-03-18T01:56:27;97055.44;;;8.50;48.30
72038;BME280;59900;50.788;12.904;2023-03-18T01:58:55;97064.13;;;8.51;47.95
72038;BME280;59900;50.788;12.904;2023-03-18T02:01:30;97062.50;;;8.50;48.14
72038;BME280;59900;50.788;12.904;2023-03-18T02:03:57;97069.09;;;8.45;48.09
72038;BME280;59900;50.788;12.904;2023-03-18T02:06:24;97069.31;;;8.44;48.33
72038;BME280;59900;50.788;12.904;2023-03-18T02:08:49;97069.69;;;8.41;48.35
72038;BME280;59900;50.788;12.904;2023-03-18T02:11:15;97062.84;;;8.40;48.17
72038;BME280;59900;50.788;12.904;2023-03-18T02:13:42;97068.44;;;8.37;48.28
72038;BME280;59900;50.788;12.904;2023-03-18T02:16:13;97080.50;;;8.31;48.12
72038;BME280;59900;50.788;12.904;2023-03-18T02:18:44;97073.69;;;8.30;48.42
72038;BME280;59900;50.788;12.904;2023-03-18T02:24:18;97067.41;;;8.31;48.67
72038;BME280;59900;50.788;12.904;2023-03-18T02:27:03;97076.91;;;8.32;48.51
72038;BME280;59900;50.788;12.904;2023-03-18T02:29:32;97071.84;;;8.31;48.48
72038;BME280;59900;50.788;12.904;2023-03-18T02:32:03;97078.09;;;8.30;48.64
72038;BME280;59900;50.788;12.904;2023-03-18T02:34:30;97075.84;;;8.27;48.52
72038;BME280;59900;50.788;12.904;2023-03-18T02:36:56;97070.97;;;8.24;48.53
72038;BME280;59900;50.788;12.904;2023-03-18T02:39:22;97071.38;;;8.21;48.41
72038;BME280;59900;50.788;12.904;2023-03-18T02:41:47;97073.38;;;8.19;48.61
72038;BME280;59900;50.788;12.904;2023-03-18T02:44:13;97071.91;;;8.16;48.39
72038;BME280;59900;50.788;12.904;2023-03-18T02:49:10;97084.78;;;8.11;48.03
72038;BME280;59900;50.788;12.904;2023-03-18T02:51:36;97092.19;;;8.08;48.36
72038;BME280;59900;50.788;12.904;2023-03-18T02:54:12;97090.41;;;8.08;48.31
72038;BME280;59900;50.788;12.904;2023-03-18T02:56:39;97093.81;;;8.09;48.60
72038;BME280;59900;50.788;12.904;2023-03-18T02:59:05;97088.00;;;8.07;48.55
72038;BME280;59900;50.788;12.904;2023-03-18T03:01:32;97089.34;;;8.03;48.63
72038;BME280;59900;50.788;12.904;2023-03-18T03:03:58;97096.81;;;8.06;48.96
72038;BME280;59900;50.788;12.904;2023-03-18T03:06:24;97093.97;;;8.01;49.14
72038;BME280;59900;50.788;12.904;2023-03-18T03:08:50;97084.31;;;8.01;49.00
72038;BME280;59900;50.788;12.904;2023-03-18T03:11:16;97101.81;;;8.01;49.21
72038;BME280;59900;50.788;12.904;2023-03-18T03:13:42;97101.63;;;8.02;49.24
72038;BME280;59900;50.788;12.904;2023-03-18T03:16:10;97105.25;;;8.01;49.19
72038;BME280;59900;50.788;12.904;2023-03-18T03:18:36;97110.13;;;8.04;49.47
72038;BME280;59900;50.788;12.904;2023-03-18T03:21:02;97107.28;;;8.06;49.51
72038;BME280;59900;50.788;12.904;2023-03-18T03:23:27;97113.50;;;8.05;49.49
72038;BME280;59900;50.788;12.904;2023-03-18T03:25:53;97107.88;;;8.01;49.45
72038;BME280;59900;50.788;12.904;2023-03-18T03:28:18;97115.53;;;8.03;49.82
72038;BME280;59900;50.788;12.904;2023-03-18T03:30:44;97116.50;;;8.02;49.72
72038;BME280;59900;50.788;12.904;2023-03-18T03:33:10;97122.56;;;8.02;50.05
72038;BME280;59900;50.788;12.904;2023-03-18T03:35:36;97120.31;;;7.99;49.83
72038;BME280;59900;50.788;12.904;2023-03-18T03:38:02;97122.31;;;7.97;49.78
72038;BME280;59900;50.788;12.904;2023-03-18T03:40:27;97126.13;;;7.95;50.26
72038;BME280;59900;50.788;12.904;2023-03-18T03:42:53;97124.06;;;7.90;50.22
72038;BME280;59900;50.788;12.904;2023-03-18T03:45:19;97138.34;;;7.87;50.18
72038;BME280;59900;50.788;12.904;2023-03-18T03:47:45;97127.06;;;7.87;50.61
72038;BME280;59900;50.788;12.904;2023-03-18T03:50:12;97139.16;;;7.88;50.75
72038;BME280;59900;50.788;12.904;2023-03-18T03:52:38;97138.47;;;7.79;50.59
72038;BME280;59900;50.788;12.904;2023-03-18T03:55:06;97144.28;;;7.75;50.95
72038;BME280;59900;50.788;12.904;2023-03-18T03:57:32;97137.97;;;7.69;50.65
72038;BME280;59900;50.788;12.904;2023-03-18T03:59:57;97134.13;;;7.65;50.85
72038;BME280;59900;50.788;12.904;2023-03-18T04:02:22;97142.50;;;7.61;51.14
72038;BME280;59900;50.788;12.904;2023-03-18T04:04:48;97141.09;;;7.58;51.44
72038;BME280;59900;50.788;12.904;2023-03-18T04:07:14;97137.19;;;7.48;51.54
72038;BME280;59900;50.788;12.904;2023-03-18T04:09:40;97145.94;;;7.40;51.72
72038;BME280;59900;50.788;12.904;2023-03-18T04:12:06;97139.84;;;7.33;52.13
72038;BME280;59900;50.788;12.904;2023-03-18T04:14:32;97142.19;;;7.28;52.34
72038;BME280;59900;50.788;12.904;2023-03-18T04:16:57;97149.41;;;7.26;52.47
72038;BME280;59900;50.788;12.904;2023-03-18T04:19:25;97150.13;;;7.20;52.38
72038;BME280;59900;50.788;12.904;2023-03-18T04:21:51;97143.31;;;7.19;52.59
72038;BME280;59900;50.788;12.904;2023-03-18T04:24:18;97144.56;;;7.08;52.45
72038;BME280;59900;50.788;12.904;2023-03-18T04:26:43;97149.34;;;7.05;52.83
72038;BME280;59900;50.788;12.904;2023-03-18T04:29:08;97156.22;;;7.06;52.67
72038;BME280;59900;50.788;12.904;2023-03-18T04:31:34;97150.16;;;7.05;52.98
72038;BME280;59900;50.788;12.904;2023-03-18T04:33:59;97145.59;;;7.07;53.04
72038;BME280;59900;50.788;12.904;2023-03-18T04:36:24;97144.31;;;7.03;52.96
72038;BME280;59900;50.788;12.904;2023-03-18T04:38:50;97149.28;;;6.98;53.27
72038;BME280;59900;50.788;12.904;2023-03-18T04:41:16;97151.25;;;6.96;53.17
72038;BME280;59900;50.788;12.904;2023-03-18T04:43:41;97151.09;;;6.98;53.08
72038;BME280;59900;50.788;12.904;2023-03-18T04:46:07;97154.16;;;7.01;53.34
72038;BME280;59900;50.788;12.904;2023-03-18T04:48:32;97151.53;;;7.01;53.49
72038;BME280;59900;50.788;12.904;2023-03-18T04:50:58;97153.16;;;7.02;53.69
72038;BME280;59900;50.788;12.904;2023-03-18T04:53:24;97162.88;;;7.08;53.54
72038;BME280;59900;50.788;12.904;2023-03-18T04:55:50;97157.63;;;7.08;53.67
72038;BME280;59900;50.788;12.904;2023-03-18T04:58:15;97152.78;;;7.05;53.40
72038;BME280;59900;50.788;12.904;2023-03-18T05:00:41;97154.41;;;7.06;53.77
72038;BME280;59900;50.788;12.904;2023-03-18T05:03:08;97162.00;;;7.01;53.99
72038;BME280;59900;50.788;12.904;2023-03-18T05:05:33;97156.94;;;7.00;54.23
72038;BME280;59900;50.788;12.904;2023-03-18T05:07:59;97160.53;;;6.99;54.59
72038;BME280;59900;50.788;12.904;2023-03-18T05:10:24;97164.78;;;7.00;54.57
72038;BME280;59900;50.788;12.904;2023-03-18T05:12:49;97166.75;;;6.98;54.90
72038;BME280;59900;50.788;12.904;2023-03-18T05:15:15;97160.72;;;6.97;55.25
72038;BME280;59900;50.788;12.904;2023-03-18T05:17:40;97156.13;;;6.99;55.23
72038;BME280;59900;50.788;12.904;2023-03-18T05:20:07;97157.56;;;7.02;55.36
72038;BME280;59900;50.788;12.904;2023-03-18T05:22:34;97154.56;;;7.05;55.37
72038;BME280;59900;50.788;12.904;2023-03-18T05:24:59;97161.25;;;7.07;55.54
72038;BME280;59900;50.788;12.904;2023-03-18T05:27:25;97160.91;;;7.10;55.32
72038;BME280;59900;50.788;12.904;2023-03-18T05:29:52;97159.88;;;7.11;55.63
72038;BME280;59900;50.788;12.904;2023-03-18T05:32:17;97156.09;;;7.14;55.50
72038;BME280;59900;50.788;12.904;2023-03-18T05:34:43;97165.56;;;7.15;55.88
72038;BME280;59900;50.788;12.904;2023-03-18T05:37:11;97169.44;;;7.19;55.64
72038;BME280;59900;50.788;12.904;2023-03-18T05:39:37;97164.63;;;7.22;55.69
72038;BME280;59900;50.788;12.904;2023-03-18T05:42:03;97168.31;;;7.28;56.08
72038;BME280;59900;50.788;12.904;2023-03-18T05:44:29;97163.97;;;7.35;55.79
72038;BME280;59900;50.788;12.904;2023-03-18T05:46:55;97165.03;;;7.41;56.04
72038;BME280;59900;50.788;12.904;2023-03-18T05:49:20;97169.72;;;7.45;56.02
72038;BME280;59900;50.788;12.904;2023-03-18T05:51:45;97165.94;;;7.48;55.87
72038;BME280;59900;50.788;12.904;2023-03-18T05:54:14;97171.03;;;7.56;56.04
72038;BME280;59900;50.788;12.904;2023-03-18T05:56:40;97166.88;;;7.61;56.22
72038;BME280;59900;50.788;12.904;2023-03-18T05:59:08;97169.94;;;7.65;55.92
72038;BME280;59900;50.788;12.904;2023-03-18T06:01:34;97174.16;;;7.66;56.02
72038;BME280;59900;50.788;12.904;2023-03-18T06:04:00;97167.69;;;7.62;56.18
72038;BME280;59900;50.788;12.904;2023-03-18T06:06:25;97170.47;;;7.60;55.85
72038;BME280;59900;50.788;12.904;2023-03-18T06:08:51;97168.88;;;7.59;56.08
72038;BME280;59900;50.788;12.904;2023-03-18T06:11:17;97172.66;;;7.57;56.34
72038;BME280;59900;50.788;12.904;2023-03-18T06:13:42;97159.25;;;7.66;57.59
72038;BME280;59900;50.788;12.904;2023-03-18T06:16:09;97168.81;;;7.74;57.85
72038;BME280;59900;50.788;12.904;2023-03-18T06:18:34;97168.13;;;7.86;57.45
72038;BME280;59900;50.788;12.904;2023-03-18T06:21:00;97167.34;;;7.93;57.48
72038;BME280;59900;50.788;12.904;2023-03-18T06:23:25;97175.25;;;7.99;57.26
72038;BME280;59900;50.788;12.904;2023-03-18T06:25:51;97175.25;;;7.99;56.43
72038;BME280;59900;50.788;12.904;2023-03-18T06:28:17;97168.22;;;8.00;56.78
72038;BME280;59900;50.788;12.904;2023-03-18T06:30:42;97173.91;;;8.03;56.99
72038;BME280;59900;50.788;12.904;2023-03-18T06:33:08;97176.75;;;8.08;57.01
72038;BME280;59900;50.788;12.904;2023-03-18T06:35:34;97166.34;;;8.15;56.78
72038;BME280;59900;50.788;12.904;2023-03-18T06:37:59;97178.84;;;8.19;56.88
72038;BME280;59900;50.788;12.904;2023-03-18T06:40:25;97173.31;;;8.29;56.97
72038;BME280;59900;50.788;12.904;2023-03-18T06:42:50;97170.94;;;8.34;57.82
72038;BME280;59900;50.788;12.904;2023-03-18T06:45:16;97173.00;;;8.38;57.84
72038;BME280;59900;50.788;12.904;2023-03-18T06:47:43;97175.28;;;8.48;57.91
72038;BME280;59900;50.788;12.904;2023-03-18T06:50:09;97184.22;;;8.60;57.84
72038;BME280;59900;50.788;12.904;2023-03-18T06:52:35;97177.22;;;8.67;57.61
72038;BME280;59900;50.788;12.904;2023-03-18T06:55:02;97189.78;;;8.78;57.21
72038;BME280;59900;50.788;12.904;2023-03-18T06:57:27;97173.06;;;8.79;57.10
72038;BME280;59900;50.788;12.904;2023-03-18T06:59:53;97180.97;;;8.86;57.31
72038;BME280;59900;50.788;12.904;2023-03-18T07:02:18;97180.19;;;8.92;57.56
72038;BME280;59900;50.788;12.904;2023-03-18T07:04:44;97174.97;;;8.98;57.93
72038;BME280;59900;50.788;12.904;2023-03-18T07:07:09;97186.72;;;9.09;57.58
72038;BME280;59900;50.788;12.904;2023-03-18T07:09:35;97179.28;;;9.19;57.30
72038;BME280;59900;50.788;12.904;2023-03-18T07:12:00;97185.16;;;9.28;57.88
72038;BME280;59900;50.788;12.904;2023-03-18T07:14:26;97179.56;;;9.37;57.38
72038;BME280;59900;50.788;12.904;2023-03-18T07:16:53;97186.47;;;9.45;57.49
72038;BME280;59900;50.788;12.904;2023-03-18T07:19:18;97187.69;;;9.55;57.17
72038;BME280;59900;50.788;12.904;2023-03-18T07:21:44;97187.50;;;9.64;57.17
72038;BME280;59900;50.788;12.904;2023-03-18T07:24:10;97185.72;;;9.71;57.62
72038;BME280;59900;50.788;12.904;2023-03-18T07:26:36;97191.38;;;9.81;57.15
72038;BME280;59900;50.788;12.904;2023-03-18T07:29:03;97186.34;;;9.86;57.34
72038;BME280;59900;50.788;12.904;2023-03-18T07:31:28;97188.56;;;9.95;57.70
72038;BME280;59900;50.788;12.904;2023-03-18T07:33:54;97184.34;;;10.01;57.23
72038;BME280;59900;50.788;12.904;2023-03-18T07:36:19;97178.91;;;10.09;57.17
72038;BME280;59900;50.788;12.904;2023-03-18T07:38:45;97190.22;;;10.16;57.23
72038;BME280;59900;50.788;12.904;2023-03-18T07:41:11;97187.84;;;10.21;57.35
72038;BME280;59900;50.788;12.904;2023-03-18T07:43:36;97191.06;;;10.30;57.31
72038;BME280;59900;50.788;12.904;2023-03-18T07:46:02;97188.63;;;10.35;57.51
72038;BME280;59900;50.788;12.904;2023-03-18T07:48:28;97181.56;;;10.42;57.53
72038;BME280;59900;50.788;12.904;2023-03-18T07:50:54;97189.00;;;10.51;57.50
72038;BME280;59900;50.788;12.904;2023-03-18T07:53:20;97195.50;;;10.62;57.62
72038;BME280;59900;50.788;12.904;2023-03-18T07:55:46;97198.06;;;10.68;57.29
72038;BME280;59900;50.788;12.904;2023-03-18T07:58:11;97204.38;;;10.74;56.78
72038;BME280;59900;50.788;12.904;2023-03-18T08:00:37;97205.56;;;10.78;57.15
72038;BME280;59900;50.788;12.904;2023-03-18T08:03:02;97208.59;;;10.82;56.85
72038;BME280;59900;50.788;12.904;2023-03-18T08:05:28;97209.41;;;10.89;57.18
72038;BME280;59900;50.788;12.904;2023-03-18T08:07:53;97210.16;;;10.96;57.04
72038;BME280;59900;50.788;12.904;2023-03-18T08:10:19;97217.47;;;11.00;57.04
72038;BME280;59900;50.788;12.904;2023-03-18T08:12:44;97214.38;;;11.10;56.97
72038;BME280;59900;50.788;12.904;2023-03-18T08:15:10;97220.22;;;11.18;56.98
72038;BME280;59900;50.788;12.904;2023-03-18T08:17:36;97218.38;;;11.25;57.04
72038;BME280;59900;50.788;12.904;2023-03-18T08:20:01;97213.91;;;11.33;56.87
72038;BME280;59900;50.788;12.904;2023-03-18T08:22:26;97216.31;;;11.41;57.16
72038;BME280;59900;50.788;12.904;2023-03-18T08:24:52;97209.19;;;11.48;57.29
72038;BME280;59900;50.788;12.904;2023-03-18T08:27:17;97213.19;;;11.57;57.24
72038;BME280;59900;50.788;12.904;2023-03-18T08:29:43;97207.47;;;11.66;57.17
72038;BME280;59900;50.788;12.904;2023-03-18T08:32:10;97217.00;;;11.74;57.34
72038;BME280;59900;50.788;12.904;2023-03-18T08:34:35;97223.25;;;11.79;57.62
72038;BME280;59900;50.788;12.904;2023-03-18T08:37:00;97217.91;;;11.86;57.36
72038;BME280;59900;50.788;12.904;2023-03-18T08:39:26;97226.75;;;11.98;57.71
72038;BME280;59900;50.788;12.904;2023-03-18T08:41:51;97218.41;;;12.08;57.44
72038;BME280;59900;50.788;12.904;2023-03-18T08:44:16;97222.41;;;12.17;57.43
72038;BME280;59900;50.788;12.904;2023-03-18T08:46:42;97223.16;;;12.24;56.08
72038;BME280;59900;50.788;12.904;2023-03-18T08:49:07;97225.75;;;12.30;57.54
72038;BME280;59900;50.788;12.904;2023-03-18T08:51:34;97223.00;;;12.44;57.56
72038;BME280;59900;50.788;12.904;2023-03-18T08:53:59;97228.16;;;12.57;57.47
72038;BME280;59900;50.788;12.904;2023-03-18T08:56:25;97229.31;;;12.67;57.13
72038;BME280;59900;50.788;12.904;2023-03-18T08:58:50;97226.25;;;12.70;57.07
72038;BME280;59900;50.788;12.904;2023-03-18T09:01:16;97225.94;;;12.78;56.77
72038;BME280;59900;50.788;12.904;2023-03-18T09:03:41;97223.84;;;12.87;56.85
72038;BME280;59900;50.788;12.904;2023-03-18T09:06:07;97222.53;;;12.96;56.89
72038;BME280;59900;50.788;12.904;2023-03-18T09:08:32;97230.41;;;13.03;56.47
72038;BME280;59900;50.788;12.904;2023-03-18T09:10:58;97240.09;;;13.09;56.72
72038;BME280;59900;50.788;12.904;2023-03-18T09:13:24;97241.88;;;13.15;56.03
72038;BME280;59900;50.788;12.904;2023-03-18T09:15:49;97239.00;;;13.16;55.75
72038;BME280;59900;50.788;12.904;2023-03-18T09:18:16;97235.28;;;13.24;56.09
72038;BME280;59900;50.788;12.904;2023-03-18T09:20:42;97239.66;;;13.30;56.56
72038;BME280;59900;50.788;12.904;2023-03-18T09:23:09;97236.75;;;13.38;56.29
72038;BME280;59900;50.788;12.904;2023-03-18T09:25:36;97229.97;;;13.42;55.81
72038;BME280;59900;50.788;12.904;2023-03-18T09:28:01;97237.00;;;13.48;55.58
72038;BME280;59900;50.788;12.904;2023-03-18T09:30:28;97227.19;;;13.55;55.98
72038;BME280;59900;50.788;12.904;2023-03-18T09:32:54;97241.34;;;13.61;55.77
72038;BME280;59900;50.788;12.904;2023-03-18T09:35:20;97234.16;;;13.68;55.51
72038;BME280;59900;50.788;12.904;2023-03-18T09:37:45;97232.44;;;13.73;55.14
72038;BME280;59900;50.788;12.904;2023-03-18T09:40:20;97230.66;;;13.85;55.66
72038;BME280;59900;50.788;12.904;2023-03-18T09:43:00;97234.75;;;13.99;55.16
72038;BME280;59900;50.788;12.904;2023-03-18T09:45:32;97227.06;;;14.10;55.20
72038;BME280;59900;50.788;12.904;2023-03-18T09:48:10;97230.63;;;14.15;55.13
72038;BME280;59900;50.788;12.904;2023-03-18T09:50:50;97236.53;;;14.17;54.44
72038;BME280;59900;50.788;12.904;2023-03-18T09:53:36;97238.56;;;14.15;54.53
72038;BME280;59900;50.788;12.904;2023-03-18T09:56:17;97249.94;;;14.16;54.52
72038;BME280;59900;50.788;12.904;2023-03-18T09:58:51;97241.91;;;14.22;54.98
72038;BME280;59900;50.788;12.904;2023-03-18T10:01:19;97239.72;;;14.19;55.08
72038;BME280;59900;50.788;12.904;2023-03-18T10:03:51;97241.91;;;14.22;55.76
72038;BME280;59900;50.788;12.904;2023-03-18T10:06:22;97247.78;;;14.24;55.45
72038;BME280;59900;50.788;12.904;2023-03-18T10:11:22;97249.22;;;14.38;55.36
72038;BME280;59900;50.788;12.904;2023-03-18T10:19:27;97255.56;;;14.37;55.89
72038;BME280;59900;50.788;12.904;2023-03-18T10:22:21;97252.47;;;14.40;55.88
72038;BME280;59900;50.788;12.904;2023-03-18T10:24:55;97256.94;;;14.40;55.44
72038;BME280;59900;50.788;12.904;2023-03-18T10:27:41;97258.78;;;14.39;55.90
72038;BME280;59900;50.788;12.904;2023-03-18T10:30:18;97260.50;;;14.45;56.17
72038;BME280;59900;50.788;12.904;2023-03-18T10:35:42;97264.00;;;14.57;56.07
72038;BME280;59900;50.788;12.904;2023-03-18T10:38:23;97253.31;;;14.64;55.68
72038;BME280;59900;50.788;12.904;2023-03-18T10:40:50;97265.72;;;14.64;55.49
72038;BME280;59900;50.788;12.904;2023-03-18T10:43:17;97259.75;;;14.68;54.49
72038;BME280;59900;50.788;12.904;2023-03-18T10:45:45;97261.47;;;14.63;54.40
72038;BME280;59900;50.788;12.904;2023-03-18T10:48:20;97271.50;;;14.72;54.92
72038;BME280;59900;50.788;12.904;2023-03-18T10:53:35;97262.41;;;14.80;54.72
72038;BME280;59900;50.788;12.904;2023-03-18T10:56:06;97266.09;;;14.79;54.67
72038;BME280;59900;50.788;12.904;2023-03-18T10:58:31;97260.69;;;14.85;54.78
72038;BME280;59900;50.788;12.904;2023-03-18T11:00:57;97262.66;;;14.90;54.41
72038;BME280;59900;50.788;12.904;2023-03-18T11:03:26;97263.09;;;14.87;54.35
72038;BME280;59900;50.788;12.904;2023-03-18T11:05:54;97257.25;;;14.96;54.64
72038;BME280;59900;50.788;12.904;2023-03-18T11:08:31;97256.53;;;15.01;54.44
72038;BME280;59900;50.788;12.904;2023-03-18T11:11:01;97256.31;;;15.14;54.44
72038;BME280;59900;50.788;12.904;2023-03-18T11:13:37;97259.06;;;15.19;54.29
72038;BME280;59900;50.788;12.904;2023-03-18T11:16:03;97254.69;;;15.25;53.86
72038;BME280;59900;50.788;12.904;2023-03-18T11:18:28;97260.34;;;15.28;53.65
72038;BME280;59900;50.788;12.904;2023-03-18T11:20:56;97259.31;;;15.29;54.20
72038;BME280;59900;50.788;12.904;2023-03-18T11:23:34;97259.63;;;15.33;53.85
72038;BME280;59900;50.788;12.904;2023-03-18T11:26:26;97255.75;;;15.47;54.25
72038;BME280;59900;50.788;12.904;2023-03-18T11:28:56;97262.72;;;15.53;53.91
72038;BME280;59900;50.788;12.904;2023-03-18T11:31:22;97263.88;;;15.57;53.95
72038;BME280;59900;50.788;12.904;2023-03-18T11:33:47;97256.28;;;15.60;53.84
72038;BME280;59900;50.788;12.904;2023-03-18T11:36:17;97256.25;;;15.72;53.70
72038;BME280;59900;50.788;12.904;2023-03-18T11:38:55;97252.53;;;15.85;53.52
72038;BME280;59900;50.788;12.904;2023-03-18T11:41:23;97250.06;;;15.95;53.62
72038;BME280;59900;50.788;12.904;2023-03-18T11:44:06;97252.53;;;15.85;53.32
72038;BME280;59900;50.788;12.904;2023-03-18T11:46:38;97248.50;;;15.82;53.37
72038;BME280;59900;50.788;12.904;2023-03-18T11:49:12;97249.56;;;15.69;53.94
72038;BME280;59900;50.788;12.904;2023-03-18T11:54:39;97248.09;;;15.62;53.85
72038;BME280;59900;50.788;12.904;2023-03-18T11:57:26;97247.06;;;15.63;54.83
72038;BME280;59900;50.788;12.904;2023-03-18T12:02:49;97251.28;;;15.76;54.48
72038;BME280;59900;50.788;12.904;2023-03-18T12:11:02;97245.41;;;15.74;55.33
72038;BME280;59900;50.788;12.904;2023-03-18T12:13:39;97245.78;;;15.65;54.97
72038;BME280;59900;50.788;12.904;2023-03-18T12:16:32;97239.44;;;15.66;54.96
72038;BME280;59900;50.788;12.904;2023-03-18T12:19:16;97241.63;;;15.69;54.42
72038;BME280;59900;50.788;12.904;2023-03-18T12:22:40;97244.97;;;15.65;54.97
72038;BME280;59900;50.788;12.904;2023-03-18T12:25:26;97246.72;;;15.59;55.01
72038;BME280;59900;50.788;12.904;2023-03-18T12:30:47;97241.88;;;15.56;54.97
72038;BME280;59900;50.788;12.904;2023-03-18T12:35:54;97242.78;;;15.62;54.65
72038;BME280;59900;50.788;12.904;2023-03-18T12:38:49;97235.06;;;15.72;54.58
72038;BME280;59900;50.788;12.904;2023-03-18T12:44:33;97235.31;;;15.99;53.67
72038;BME280;59900;50.788;12.904;2023-03-18T12:47:08;97228.09;;;16.11;53.56
72038;BME280;59900;50.788;12.904;2023-03-18T12:49:37;97232.63;;;16.27;53.32
72038;BME280;59900;50.788;12.904;2023-03-18T12:52:19;97229.66;;;16.40;52.64
72038;BME280;59900;50.788;12.904;2023-03-18T12:54:56;97228.34;;;16.54;52.54
72038;BME280;59900;50.788;12.904;2023-03-18T12:57:39;97228.16;;;16.77;51.67
72038;BME280;59900;50.788;12.904;2023-03-18T13:03:00;97221.31;;;17.36;50.15
72038;BME280;59900;50.788;12.904;2023-03-18T13:05:40;97217.50;;;17.71;49.64
72038;BME280;59900;50.788;12.904;2023-03-18T13:10:41;97217.31;;;18.31;48.23
72038;BME280;59900;50.788;12.904;2023-03-18T13:13:10;97221.69;;;18.42;46.65
72038;BME280;59900;50.788;12.904;2023-03-18T13:15:43;97218.06;;;18.53;46.72
72038;BME280;59900;50.788;12.904;2023-03-18T13:18:25;97219.56;;;18.44;46.63
72038;BME280;59900;50.788;12.904;2023-03-18T13:20:56;97217.84;;;18.55;46.01
72038;BME280;59900;50.788;12.904;2023-03-18T13:23:57;97220.78;;;18.95;45.25
72038;BME280;59900;50.788;12.904;2023-03-18T13:26:50;97212.38;;;19.13;44.74
72038;BME280;59900;50.788;12.904;2023-03-18T13:29:29;97211.28;;;19.61;44.58
72038;BME280;59900;50.788;12.904;2023-03-18T13:34:51;97205.91;;;20.38;42.47
72038;BME280;59900;50.788;12.904;2023-03-18T13:37:42;97204.84;;;20.39;42.60
72038;BME280;59900;50.788;12.904;2023-03-18T13:43:00;97203.19;;;20.23;42.63
72038;BME280;59900;50.788;12.904;2023-03-18T13:45:38;97202.97;;;20.30;43.20
72038;BME280;59900;50.788;12.904;2023-03-18T13:48:13;97199.75;;;20.28;43.17
72038;BME280;59900;50.788;12.904;2023-03-18T13:50:41;97204.03;;;20.64;41.77
72038;BME280;59900;50.788;12.904;2023-03-18T13:58:27;97192.78;;;21.12;40.52